Time;durP1;ratioP1;P1;durP2;ratioP2;P2;SDS_P1;SDS_P2;PMS_P1;PMS_P2;Temp;Humidity;BMP_temperature;BMP_pressure;BME280_temperature;BME280_humidity;BME280_pressure;Samples;Min_cycle;Max_cycle;Signal;HPM_P1;HPM_P2
2020/12/17 00:01:26;;;;;;;10.47;6.93;;;;;;;;;;5090983;28;20455;-70
2020/12/17 00:03:52;;;;;;;11.40;6.60;;;;;;;;;;5092939;28;20408;-70
2020/12/17 00:06:18;;;;;;;11.00;6.77;;;;;;;;;;5091913;28;20432;-69
2020/12/17 00:08:44;;;;;;;7.60;6.43;;;;;;;;;;5088800;28;20423;-69
2020/12/17 00:11:10;;;;;;;9.50;6.63;;;;;;;;;;5091214;28;20474;-70
2020/12/17 00:13:36;;;;;;;9.70;6.53;;;;;;;;;;5091930;28;21644;-70
2020/12/17 00:16:03;;;;;;;12.40;8.10;;;;;;;;;;5091625;28;20455;-70
2020/12/17 00:18:29;;;;;;;10.17;6.77;;;;;;;;;;5092947;28;20427;-70
2020/12/17 00:20:55;;;;;;;10.90;7.27;;;;;;;;;;5076214;28;20415;-70
2020/12/17 00:23:21;;;;;;;8.10;6.10;;;;;;;;;;5096761;28;20408;-70
2020/12/17 00:25:47;;;;;;;9.30;6.60;;;;;;;;;;5095294;28;20509;-71
2020/12/17 00:28:13;;;;;;;9.40;6.27;;;;;;;;;;5096370;28;20424;-71
2020/12/17 00:30:39;;;;;;;10.40;6.50;;;;;;;;;;5096016;28;20430;-70
2020/12/17 00:33:05;;;;;;;14.20;7.30;;;;;;;;;;5078098;28;20908;-70
2020/12/17 00:35:31;;;;;;;8.93;6.60;;;;;;;;;;5095131;28;20444;-70
2020/12/17 00:37:57;;;;;;;8.90;6.80;;;;;;;;;;5094188;28;20430;-70
2020/12/17 00:40:23;;;;;;;15.70;7.27;;;;;;;;;;5096229;28;20901;-70
2020/12/17 00:42:49;;;;;;;7.70;6.70;;;;;;;;;;5094908;28;20545;-70
2020/12/17 00:45:15;;;;;;;10.27;6.80;;;;;;;;;;5096387;28;20403;-70
2020/12/17 00:47:42;;;;;;;9.73;6.63;;;;;;;;;;5095092;28;20465;-70
2020/12/17 00:50:09;;;;;;;9.67;7.20;;;;;;;;;;5077662;28;20416;-70
2020/12/17 00:52:36;;;;;;;12.07;6.63;;;;;;;;;;5077086;28;20443;-71
2020/12/17 00:55:02;;;;;;;9.50;7.50;;;;;;;;;;5095980;28;20455;-70
2020/12/17 00:57:28;;;;;;;12.40;7.97;;;;;;;;;;5094945;28;20511;-69
2020/12/17 00:59:54;;;;;;;9.00;6.53;;;;;;;;;;5095483;28;20506;-70
2020/12/17 01:02:20;;;;;;;10.37;6.67;;;;;;;;;;5094611;28;20456;-70
2020/12/17 01:04:46;;;;;;;10.20;6.57;;;;;;;;;;5095905;28;20412;-70
2020/12/17 01:07:12;;;;;;;11.47;7.30;;;;;;;;;;5076357;28;20432;-69
2020/12/17 01:09:38;;;;;;;8.43;5.70;;;;;;;;;;5075630;28;20481;-69
2020/12/17 01:12:05;;;;;;;8.43;6.40;;;;;;;;;;5091935;28;20578;-70
2020/12/17 01:14:31;;;;;;;7.80;5.70;;;;;;;;;;5095619;28;20463;-70
2020/12/17 01:16:57;;;;;;;9.40;5.70;;;;;;;;;;5094870;28;20762;-71
2020/12/17 01:19:23;;;;;;;7.57;5.73;;;;;;;;;;5094997;28;20403;-69
2020/12/17 01:21:52;;;;;;;10.30;6.83;;;;;;;;;;5089717;28;20452;-70
2020/12/17 01:24:18;;;;;;;7.60;6.20;;;;;;;;;;5095349;28;20404;-69
2020/12/17 01:26:44;;;;;;;10.40;6.40;;;;;;;;;;5094146;28;21041;-70
2020/12/17 01:29:10;;;;;;;9.50;6.27;;;;;;;;;;5095112;28;20396;-70
2020/12/17 01:31:36;;;;;;;8.03;5.67;;;;;;;;;;5093725;28;20448;-70
2020/12/17 01:34:02;;;;;;;7.47;5.57;;;;;;;;;;5095009;28;20494;-69
2020/12/17 01:36:28;;;;;;;9.93;6.60;;;;;;;;;;5093319;28;20511;-70
2020/12/17 01:38:54;;;;;;;8.40;5.90;;;;;;;;;;5095053;28;20392;-69
2020/12/17 01:41:20;;;;;;;8.70;5.43;;;;;;;;;;5093840;28;20456;-70
2020/12/17 01:43:46;;;;;;;7.97;5.63;;;;;;;;;;5077132;28;20405;-70
2020/12/17 01:46:13;;;;;;;8.40;5.40;;;;;;;;;;5093974;28;20521;-70
2020/12/17 01:48:40;;;;;;;9.23;5.97;;;;;;;;;;5095121;28;20415;-69
2020/12/17 01:51:06;;;;;;;7.40;5.83;;;;;;;;;;5093599;28;20421;-70
2020/12/17 01:53:40;;;;;;;6.23;4.90;;;;;;;;;;5093821;28;20443;-69
2020/12/17 01:56:11;;;;;;;10.13;6.07;;;;;;;;;;5075627;28;20451;-71
2020/12/17 01:58:41;;;;;;;14.00;7.80;;;;;;;;;;5075542;28;20432;-70
2020/12/17 02:01:08;;;;;;;9.30;5.83;;;;;;;;;;5103415;22;20444;-84
2020/12/17 02:03:34;;;;;;;9.87;6.90;;;;;;;;;;5080796;28;20405;-84
2020/12/17 02:06:00;;;;;;;7.13;5.77;;;;;;;;;;5098709;28;20408;-84
2020/12/17 02:08:27;;;;;;;5.87;5.13;;;;;;;;;;5080779;28;20431;-83
2020/12/17 02:10:54;;;;;;;7.90;5.87;;;;;;;;;;5099903;28;21015;-83
2020/12/17 02:13:33;;;;;;;7.63;5.87;;;;;;;;;;5094754;28;20424;-83
2020/12/17 02:16:00;;;;;;;8.37;6.10;;;;;;;;;;5080532;28;20493;-84
2020/12/17 02:18:26;;;;;;;8.20;5.70;;;;;;;;;;5082818;28;20447;-83
2020/12/17 02:20:53;;;;;;;9.70;6.20;;;;;;;;;;5078636;28;20430;-82
2020/12/17 02:23:19;;;;;;;13.57;6.33;;;;;;;;;;5091927;28;20439;-84
2020/12/17 02:25:45;;;;;;;6.50;5.20;;;;;;;;;;5080804;28;20428;-83
2020/12/17 02:28:11;;;;;;;6.73;5.27;;;;;;;;;;5080532;28;20435;-83
2020/12/17 02:30:37;;;;;;;7.73;5.67;;;;;;;;;;5099747;28;20432;-84
2020/12/17 02:33:03;;;;;;;8.83;5.80;;;;;;;;;;5098649;28;20432;-84
2020/12/17 02:35:29;;;;;;;10.20;6.93;;;;;;;;;;5098692;28;20444;-85
2020/12/17 02:37:55;;;;;;;8.67;6.23;;;;;;;;;;5079100;28;20477;-85
2020/12/17 02:40:21;;;;;;;6.37;4.90;;;;;;;;;;5079064;28;20450;-84
2020/12/17 02:42:48;;;;;;;6.43;5.20;;;;;;;;;;5078003;28;20487;-84
2020/12/17 02:45:14;;;;;;;7.00;4.70;;;;;;;;;;5079437;28;20404;-84
2020/12/17 02:47:40;;;;;;;6.10;4.77;;;;;;;;;;5097315;28;20488;-84
2020/12/17 02:50:06;;;;;;;9.77;5.50;;;;;;;;;;5097597;28;20432;-83
2020/12/17 02:52:32;;;;;;;6.97;5.40;;;;;;;;;;5078182;28;20503;-85
2020/12/17 02:54:58;;;;;;;9.03;5.40;;;;;;;;;;5079545;28;20556;-82
2020/12/17 02:57:24;;;;;;;10.50;6.27;;;;;;;;;;5092185;28;20440;-83
2020/12/17 02:59:50;;;;;;;7.90;5.40;;;;;;;;;;5075804;28;20516;-83
2020/12/17 03:02:16;;;;;;;7.53;5.30;;;;;;;;;;5083039;28;20845;-82
2020/12/17 03:04:42;;;;;;;5.07;4.00;;;;;;;;;;5097598;28;20426;-83
2020/12/17 03:07:08;;;;;;;10.90;6.40;;;;;;;;;;5095971;28;20552;-83
2020/12/17 03:09:34;;;;;;;7.83;5.50;;;;;;;;;;5078875;28;20506;-84
2020/12/17 03:12:00;;;;;;;7.30;5.17;;;;;;;;;;5078260;28;20408;-84
2020/12/17 03:14:26;;;;;;;7.40;5.57;;;;;;;;;;5092151;28;20467;-84
2020/12/17 03:16:52;;;;;;;7.40;5.30;;;;;;;;;;5096222;28;20412;-84
2020/12/17 03:19:18;;;;;;;5.43;4.27;;;;;;;;;;5078907;28;20530;-83
2020/12/17 03:21:44;;;;;;;7.33;5.70;;;;;;;;;;5078820;28;20545;-83
2020/12/17 03:24:10;;;;;;;12.57;6.70;;;;;;;;;;5077753;28;20421;-84
2020/12/17 03:26:36;;;;;;;7.30;5.30;;;;;;;;;;5096742;28;20486;-81
2020/12/17 03:29:02;;;;;;;6.73;5.20;;;;;;;;;;5077468;28;20448;-84
2020/12/17 03:31:28;;;;;;;7.57;5.60;;;;;;;;;;5097691;28;20473;-81
2020/12/17 03:33:54;;;;;;;9.83;6.60;;;;;;;;;;5078742;28;20479;-85
2020/12/17 03:36:22;;;;;;;8.70;5.50;;;;;;;;;;5097441;28;20428;-84
2020/12/17 03:38:48;;;;;;;7.57;5.50;;;;;;;;;;5095725;28;20439;-83
2020/12/17 03:41:14;;;;;;;9.20;5.13;;;;;;;;;;5078596;28;20972;-84
2020/12/17 03:43:40;;;;;;;11.17;5.70;;;;;;;;;;5078067;28;20494;-83
2020/12/17 03:46:06;;;;;;;5.70;4.80;;;;;;;;;;5094746;28;20946;-84
2020/12/17 03:48:32;;;;;;;11.13;5.30;;;;;;;;;;5065150;28;20433;-83
2020/12/17 03:50:58;;;;;;;7.93;5.27;;;;;;;;;;5074820;28;20433;-84
2020/12/17 03:53:24;;;;;;;7.00;5.23;;;;;;;;;;5087722;28;20508;-83
2020/12/17 03:55:50;;;;;;;6.23;4.87;;;;;;;;;;5081887;28;20558;-82
2020/12/17 03:58:16;;;;;;;7.87;4.63;;;;;;;;;;5081658;28;20516;-82
2020/12/17 04:00:42;;;;;;;5.93;5.20;;;;;;;;;;5100664;28;20415;-83
2020/12/17 04:03:08;;;;;;;7.43;5.50;;;;;;;;;;5081064;28;20939;-84
2020/12/17 04:05:35;;;;;;;6.50;5.57;;;;;;;;;;5101015;28;20814;-83
2020/12/17 04:08:00;;;;;;;8.73;6.50;;;;;;;;;;5099687;28;20431;-84
2020/12/17 04:10:27;;;;;;;7.60;5.73;;;;;;;;;;5081864;28;20880;-83
2020/12/17 04:12:53;;;;;;;7.97;5.13;;;;;;;;;;5099623;28;20967;-82
2020/12/17 04:15:19;;;;;;;8.10;4.93;;;;;;;;;;5080297;28;20499;-82
2020/12/17 04:17:45;;;;;;;8.93;4.83;;;;;;;;;;5112433;28;20943;-84
2020/12/17 04:20:11;;;;;;;6.30;4.50;;;;;;;;;;5099218;28;20527;-83
2020/12/17 04:22:37;;;;;;;6.40;5.20;;;;;;;;;;5099734;28;20452;-85
2020/12/17 04:25:04;;;;;;;5.20;4.50;;;;;;;;;;5082210;28;20769;-83
2020/12/17 04:27:30;;;;;;;7.70;5.70;;;;;;;;;;5099170;28;20569;-84
2020/12/17 04:29:55;;;;;;;7.10;5.37;;;;;;;;;;5081340;28;20501;-83
2020/12/17 04:32:22;;;;;;;6.00;5.37;;;;;;;;;;5099155;28;20502;-84
2020/12/17 04:34:48;;;;;;;6.20;5.60;;;;;;;;;;5080728;28;20539;-82
2020/12/17 04:37:14;;;;;;;7.00;5.87;;;;;;;;;;5081005;28;20856;-81
2020/12/17 04:39:40;;;;;;;7.03;4.80;;;;;;;;;;5098412;28;20428;-84
2020/12/17 04:42:07;;;;;;;6.80;5.10;;;;;;;;;;5099985;28;20740;-83
2020/12/17 04:44:34;;;;;;;6.50;4.77;;;;;;;;;;5081266;28;20467;-83
2020/12/17 04:47:03;;;;;;;8.77;5.60;;;;;;;;;;5083281;28;20432;-83
2020/12/17 04:49:46;;;;;;;5.20;4.40;;;;;;;;;;5099015;28;20459;-84
2020/12/17 04:52:13;;;;;;;8.17;5.60;;;;;;;;;;5082227;28;20503;-82
2020/12/17 04:54:40;;;;;;;5.30;4.70;;;;;;;;;;5080393;28;20592;-84
2020/12/17 04:57:07;;;;;;;6.23;4.50;;;;;;;;;;5099595;28;20412;-83
2020/12/17 04:59:55;;;;;;;7.73;5.20;;;;;;;;;;5081503;28;20968;-83
2020/12/17 05:02:21;;;;;;;6.80;5.00;;;;;;;;;;5079118;28;20515;-82
2020/12/17 05:04:48;;;;;;;10.63;6.10;;;;;;;;;;5080094;28;20444;-83
2020/12/17 05:07:21;;;;;;;8.10;5.77;;;;;;;;;;5078568;28;20432;-83
2020/12/17 05:09:48;;;;;;;9.57;5.83;;;;;;;;;;5112021;28;20451;-83
2020/12/17 05:12:15;;;;;;;7.50;5.30;;;;;;;;;;5098194;28;20409;-84
2020/12/17 05:14:41;;;;;;;7.40;6.27;;;;;;;;;;5096939;28;20459;-82
2020/12/17 05:17:07;;;;;;;8.17;5.60;;;;;;;;;;5083841;28;20438;-82
2020/12/17 05:19:34;;;;;;;9.20;6.50;;;;;;;;;;5097128;28;20951;-83
2020/12/17 05:22:01;;;;;;;9.67;6.90;;;;;;;;;;5102094;28;20415;-83
2020/12/17 05:24:27;;;;;;;7.43;5.97;;;;;;;;;;5085762;28;20519;-84
2020/12/17 05:26:54;;;;;;;10.80;6.43;;;;;;;;;;5099655;28;20455;-82
2020/12/17 05:29:21;;;;;;;9.87;6.53;;;;;;;;;;5080957;28;20483;-83
2020/12/17 05:31:47;;;;;;;10.97;6.60;;;;;;;;;;5099377;28;20411;-84
2020/12/17 05:34:13;;;;;;;6.33;4.47;;;;;;;;;;5098989;28;20424;-84
2020/12/17 05:36:43;;;;;;;7.70;4.83;;;;;;;;;;5099653;28;20405;-82
2020/12/17 05:39:14;;;;;;;7.60;5.43;;;;;;;;;;5080228;28;20867;-83
2020/12/17 05:41:40;;;;;;;8.00;5.30;;;;;;;;;;5099381;28;20457;-83
2020/12/17 05:44:16;;;;;;;6.33;5.70;;;;;;;;;;5069086;28;20554;-82
2020/12/17 05:46:43;;;;;;;7.80;5.87;;;;;;;;;;5079309;28;20438;-83
2020/12/17 05:49:20;;;;;;;8.57;5.00;;;;;;;;;;5089985;28;20538;-83
2020/12/17 05:51:47;;;;;;;8.00;5.83;;;;;;;;;;5109178;28;20468;-80
2020/12/17 05:54:21;;;;;;;5.77;5.03;;;;;;;;;;5114172;28;20470;-81
2020/12/17 05:56:47;;;;;;;7.80;4.70;;;;;;;;;;5115754;28;20396;-83
2020/12/17 05:59:13;;;;;;;6.77;4.83;;;;;;;;;;5100857;28;20498;-83
2020/12/17 06:01:39;;;;;;;6.10;4.80;;;;;;;;;;5097286;28;20942;-84
2020/12/17 06:04:16;;;;;;;7.30;5.53;;;;;;;;;;5098414;28;20501;-83
2020/12/17 06:06:49;;;;;;;7.63;5.77;;;;;;;;;;5097596;28;20407;-83
2020/12/17 06:09:22;;;;;;;8.30;5.30;;;;;;;;;;5096342;28;20490;-85
2020/12/17 06:11:51;;;;;;;6.57;5.10;;;;;;;;;;5096471;28;20416;-82
2020/12/17 06:14:24;;;;;;;7.97;5.30;;;;;;;;;;5098206;28;20510;-83
2020/12/17 06:16:56;;;;;;;6.77;4.23;;;;;;;;;;5098028;28;20459;-83
2020/12/17 06:19:23;;;;;;;9.97;6.60;;;;;;;;;;5094653;28;20479;-82
2020/12/17 06:21:50;;;;;;;7.67;5.00;;;;;;;;;;5101467;28;20465;-82
2020/12/17 06:24:20;;;;;;;6.90;4.30;;;;;;;;;;5078899;28;20420;-85
2020/12/17 06:26:55;;;;;;;7.53;5.30;;;;;;;;;;5100360;28;20419;-83
2020/12/17 06:29:22;;;;;;;9.43;5.40;;;;;;;;;;5081251;28;20455;-82
2020/12/17 06:31:54;;;;;;;9.33;5.77;;;;;;;;;;5099441;28;20404;-84
2020/12/17 06:34:21;;;;;;;11.80;5.40;;;;;;;;;;5097929;28;20471;-84
2020/12/17 06:36:50;;;;;;;5.43;4.60;;;;;;;;;;5078944;28;20422;-85
2020/12/17 06:39:16;;;;;;;4.93;4.10;;;;;;;;;;5091219;28;20444;-85
2020/12/17 06:41:42;;;;;;;6.10;5.10;;;;;;;;;;5083733;28;20431;-83
2020/12/17 06:44:28;;;;;;;8.60;5.63;;;;;;;;;;5082234;28;20424;-81
2020/12/17 06:46:58;;;;;;;6.72;4.68;;;;;;;;;;5072812;28;20413;-85
2020/12/17 06:49:26;;;;;;;5.70;4.20;;;;;;;;;;5079648;28;20522;-82
2020/12/17 06:52:05;;;;;;;6.20;5.00;;;;;;;;;;5100265;28;20416;-83
2020/12/17 06:54:31;;;;;;;5.57;4.50;;;;;;;;;;5087802;28;20505;-84
2020/12/17 06:57:03;;;;;;;6.00;4.88;;;;;;;;;;5098703;28;20439;-81
2020/12/17 06:59:29;;;;;;;5.67;4.70;;;;;;;;;;5090291;28;20194;-83
2020/12/17 07:01:55;;;;;;;4.30;3.60;;;;;;;;;;5084787;28;20449;-83
2020/12/17 07:04:35;;;;;;;6.30;4.83;;;;;;;;;;5085339;28;20859;-85
2020/12/17 07:07:11;;;;;;;5.27;3.60;;;;;;;;;;5081903;28;20573;-84
2020/12/17 07:09:38;;;;;;;4.47;3.77;;;;;;;;;;5079132;28;20451;-84
2020/12/17 07:12:04;;;;;;;4.30;3.77;;;;;;;;;;5080218;28;20435;-85
2020/12/17 07:14:34;;;;;;;5.63;3.83;;;;;;;;;;5093217;28;20462;-84
2020/12/17 07:17:07;;;;;;;4.50;4.07;;;;;;;;;;5098772;28;20484;-84
2020/12/17 07:19:44;;;;;;;3.80;3.30;;;;;;;;;;5093713;28;20475;-82
2020/12/17 07:22:14;;;;;;;8.33;5.80;;;;;;;;;;5062882;22;20490;-70
2020/12/17 07:24:40;;;;;;;5.10;4.47;;;;;;;;;;5032200;28;20482;-72
2020/12/17 07:27:08;;;;;;;4.63;4.13;;;;;;;;;;5033447;28;20408;-72
2020/12/17 07:29:52;;;;;;;6.57;4.93;;;;;;;;;;5031890;28;20958;-71
2020/12/17 07:32:51;;;;;;;5.53;3.97;;;;;;;;;;5033011;28;20407;-70
2020/12/17 07:35:21;;;;;;;9.00;4.90;;;;;;;;;;4988974;28;20467;-70
2020/12/17 07:37:56;;;;;;;6.53;4.40;;;;;;;;;;5014026;28;20454;-73
2020/12/17 07:40:41;;;;;;;10.70;5.40;;;;;;;;;;5010028;28;20430;-72
2020/12/17 07:43:14;;;;;;;5.07;4.13;;;;;;;;;;5023986;28;20469;-72
2020/12/17 07:45:41;;;;;;;5.40;4.57;;;;;;;;;;5032182;28;20423;-73
2020/12/17 07:48:26;;;;;;;9.30;5.47;;;;;;;;;;5032499;28;20411;-72
2020/12/17 07:50:52;;;;;;;9.87;5.20;;;;;;;;;;5032951;28;20418;-69
2020/12/17 07:53:25;;;;;;;9.63;5.47;;;;;;;;;;5032788;28;20755;-70
2020/12/17 07:55:51;;;;;;;19.87;5.73;;;;;;;;;;5031840;28;20447;-74
2020/12/17 07:58:18;;;;;;;7.40;5.50;;;;;;;;;;5033352;28;20395;-74
2020/12/17 08:00:44;;;;;;;7.47;4.90;;;;;;;;;;5032104;28;20423;-70
2020/12/17 08:03:10;;;;;;;8.23;5.80;;;;;;;;;;5033072;28;20776;-70
2020/12/17 08:05:36;;;;;;;9.87;6.00;;;;;;;;;;5032680;28;20441;-70
2020/12/17 08:08:03;;;;;;;9.00;6.10;;;;;;;;;;5032854;28;20413;-72
2020/12/17 08:10:29;;;;;;;13.33;6.30;;;;;;;;;;5031861;28;20442;-73
2020/12/17 08:12:57;;;;;;;6.13;4.83;;;;;;;;;;5032735;28;20427;-72
2020/12/17 08:15:23;;;;;;;6.77;4.30;;;;;;;;;;5029889;28;20454;-72
2020/12/17 08:17:55;;;;;;;6.13;4.40;;;;;;;;;;5015155;28;20419;-72
2020/12/17 08:20:21;;;;;;;5.57;4.00;;;;;;;;;;5031174;28;20509;-72
2020/12/17 08:22:48;;;;;;;5.73;4.23;;;;;;;;;;5028833;28;20520;-72
2020/12/17 08:25:16;;;;;;;7.77;5.37;;;;;;;;;;5024738;28;20574;-72
2020/12/17 08:27:42;;;;;;;5.83;3.63;;;;;;;;;;5032163;28;20496;-72
2020/12/17 08:30:09;;;;;;;5.90;3.60;;;;;;;;;;5028761;28;20450;-72
2020/12/17 08:32:35;;;;;;;6.17;5.00;;;;;;;;;;5028528;28;20423;-72
2020/12/17 08:35:01;;;;;;;5.50;4.40;;;;;;;;;;5016811;28;20531;-72
2020/12/17 08:37:27;;;;;;;6.53;4.40;;;;;;;;;;5030534;28;20453;-72
2020/12/17 08:40:00;;;;;;;5.47;4.90;;;;;;;;;;5031302;28;20418;-77
2020/12/17 08:42:31;;;;;;;8.90;5.53;;;;;;;;;;5035872;28;20837;-72
2020/12/17 08:45:02;;;;;;;7.13;5.07;;;;;;;;;;5032513;28;20514;-72
2020/12/17 08:47:29;;;;;;;3.80;3.27;;;;;;;;;;5034124;28;20446;-72
2020/12/17 08:49:55;;;;;;;4.83;4.20;;;;;;;;;;5026529;28;20430;-72
2020/12/17 08:52:27;;;;;;;6.07;4.57;;;;;;;;;;5035562;28;20462;-72
2020/12/17 08:55:04;;;;;;;8.77;5.57;;;;;;;;;;5034317;28;20993;-72
2020/12/17 08:57:30;;;;;;;5.40;4.60;;;;;;;;;;5032926;28;20418;-72
2020/12/17 08:59:56;;;;;;;6.00;4.57;;;;;;;;;;5029580;28;20431;-72
2020/12/17 09:02:31;;;;;;;5.97;5.30;;;;;;;;;;5030701;28;20450;-72
2020/12/17 09:04:57;;;;;;;6.80;4.10;;;;;;;;;;5032551;28;20418;-72
2020/12/17 09:07:31;;;;;;;6.80;4.33;;;;;;;;;;5034850;28;20419;-72
2020/12/17 09:10:07;;;;;;;5.80;4.63;;;;;;;;;;5034373;28;20525;-72
2020/12/17 09:12:33;;;;;;;6.30;4.83;;;;;;;;;;5033854;28;20418;-72
2020/12/17 09:15:04;;;;;;;5.67;5.07;;;;;;;;;;5033405;28;20458;-72
2020/12/17 09:17:30;;;;;;;6.83;4.60;;;;;;;;;;5035190;28;20411;-72
2020/12/17 09:19:56;;;;;;;5.27;3.80;;;;;;;;;;5033233;28;20496;-72
2020/12/17 09:22:30;;;;;;;6.93;4.83;;;;;;;;;;5030331;28;20442;-72
2020/12/17 09:24:57;;;;;;;9.20;5.47;;;;;;;;;;5030965;28;20433;-72
2020/12/17 09:27:24;;;;;;;6.07;5.10;;;;;;;;;;5033888;28;20419;-72
2020/12/17 09:30:04;;;;;;;6.30;4.30;;;;;;;;;;5031511;28;20932;-72
2020/12/17 09:32:30;;;;;;;5.83;4.23;;;;;;;;;;5029791;28;20426;-72
2020/12/17 09:35:10;;;;;;;6.53;4.07;;;;;;;;;;5032999;28;20825;-72
2020/12/17 09:37:38;;;;;;;5.97;4.47;;;;;;;;;;5033513;28;20427;-72
2020/12/17 09:40:05;;;;;;;6.67;4.90;;;;;;;;;;5033434;28;20517;-72
2020/12/17 09:42:31;;;;;;;5.63;4.90;;;;;;;;;;5034797;28;20415;-72
2020/12/17 09:44:57;;;;;;;7.07;4.90;;;;;;;;;;5033764;28;20445;-72
2020/12/17 09:47:30;;;;;;;5.67;3.40;;;;;;;;;;5032629;28;20795;-73
2020/12/17 09:50:06;;;;;;;18.93;13.20;;;;;;;;;;5018487;28;20443;-72
2020/12/17 09:52:32;;;;;;;7.70;5.13;;;;;;;;;;5034226;28;20415;-72
2020/12/17 09:54:58;;;;;;;5.07;4.50;;;;;;;;;;5031989;28;20463;-72
2020/12/17 09:57:34;;;;;;;5.53;4.20;;;;;;;;;;5033098;28;20946;-72
2020/12/17 10:00:00;;;;;;;5.97;4.30;;;;;;;;;;5033900;28;20773;-72
2020/12/17 10:02:27;;;;;;;6.73;4.77;;;;;;;;;;5034549;28;20850;-72
2020/12/17 10:04:53;;;;;;;7.57;5.30;;;;;;;;;;5033555;28;20430;-72
2020/12/17 10:07:19;;;;;;;7.23;4.90;;;;;;;;;;5034193;28;20453;-72
2020/12/17 10:09:45;;;;;;;5.50;4.60;;;;;;;;;;5033359;28;20439;-72
2020/12/17 10:12:11;;;;;;;7.93;4.90;;;;;;;;;;5030576;28;20476;-73
2020/12/17 10:14:37;;;;;;;5.70;4.67;;;;;;;;;;5034413;28;20454;-72
2020/12/17 10:17:03;;;;;;;5.77;4.00;;;;;;;;;;5032518;28;20789;-72
2020/12/17 10:19:29;;;;;;;4.60;4.10;;;;;;;;;;5016226;28;20407;-72
2020/12/17 10:21:56;;;;;;;8.50;4.90;;;;;;;;;;5033303;28;20446;-72
2020/12/17 10:24:22;;;;;;;8.40;5.40;;;;;;;;;;5029729;28;20486;-72
2020/12/17 10:26:48;;;;;;;5.17;4.67;;;;;;;;;;5028979;28;20430;-72
2020/12/17 10:29:14;;;;;;;6.73;4.90;;;;;;;;;;5033417;28;20526;-72
2020/12/17 10:31:40;;;;;;;7.47;5.30;;;;;;;;;;5031346;28;20509;-73
2020/12/17 10:34:06;;;;;;;7.00;4.17;;;;;;;;;;5031841;28;20858;-72
2020/12/17 10:36:37;;;;;;;7.17;5.60;;;;;;;;;;5031382;28;20832;-72
2020/12/17 10:39:03;;;;;;;9.13;5.40;;;;;;;;;;5033017;28;20784;-72
2020/12/17 10:41:29;;;;;;;6.23;4.93;;;;;;;;;;5031032;28;20904;-72
2020/12/17 10:43:55;;;;;;;7.57;4.80;;;;;;;;;;5032691;28;20435;-72
2020/12/17 10:46:21;;;;;;;8.43;5.20;;;;;;;;;;5033332;28;20453;-72
2020/12/17 10:48:47;;;;;;;7.40;5.67;;;;;;;;;;5031760;28;20413;-72
2020/12/17 10:51:14;;;;;;;6.40;5.03;;;;;;;;;;5025534;28;20439;-72
2020/12/17 10:53:41;;;;;;;8.30;4.97;;;;;;;;;;5033046;28;21000;-72
2020/12/17 10:56:08;;;;;;;7.40;4.43;;;;;;;;;;5031661;28;20459;-72
2020/12/17 10:58:34;;;;;;;7.30;5.00;;;;;;;;;;5013272;28;20408;-72
2020/12/17 11:01:00;;;;;;;6.30;5.20;;;;;;;;;;5030936;28;20415;-72
2020/12/17 11:03:26;;;;;;;5.20;4.40;;;;;;;;;;5026099;28;20953;-72
2020/12/17 11:05:53;;;;;;;9.97;5.30;;;;;;;;;;5033472;28;20431;-74
2020/12/17 11:08:19;;;;;;;7.30;4.90;;;;;;;;;;5031860;28;20493;-72
2020/12/17 11:10:45;;;;;;;6.63;4.67;;;;;;;;;;5031006;28;20483;-72
2020/12/17 11:13:11;;;;;;;6.20;5.13;;;;;;;;;;5015032;28;20449;-72
2020/12/17 11:15:37;;;;;;;5.73;4.43;;;;;;;;;;5031861;28;20593;-73
2020/12/17 11:18:03;;;;;;;5.10;4.60;;;;;;;;;;5032621;28;20426;-72
2020/12/17 11:20:29;;;;;;;7.70;5.03;;;;;;;;;;5032366;28;20435;-74
2020/12/17 11:22:55;;;;;;;6.40;4.63;;;;;;;;;;5031186;28;20537;-73
2020/12/17 11:25:21;;;;;;;5.93;4.30;;;;;;;;;;5031756;28;20840;-71
2020/12/17 11:27:49;;;;;;;7.37;5.33;;;;;;;;;;5029872;28;20522;-72
2020/12/17 11:30:15;;;;;;;8.00;5.10;;;;;;;;;;5031785;28;20980;-72
2020/12/17 11:32:41;;;;;;;8.50;4.93;;;;;;;;;;5031812;28;20510;-71
2020/12/17 11:35:07;;;;;;;6.70;4.60;;;;;;;;;;5031979;28;20484;-71
2020/12/17 11:37:38;;;;;;;4.60;4.17;;;;;;;;;;5026593;28;20979;-71
2020/12/17 11:40:04;;;;;;;7.80;5.20;;;;;;;;;;5031299;28;20426;-72
2020/12/17 11:42:30;;;;;;;6.93;4.70;;;;;;;;;;5027712;28;20422;-71
2020/12/17 11:44:56;;;;;;;6.87;4.40;;;;;;;;;;5029714;28;20426;-72
2020/12/17 11:47:22;;;;;;;5.10;4.20;;;;;;;;;;5031043;28;20426;-71
2020/12/17 11:49:48;;;;;;;6.83;5.00;;;;;;;;;;5031240;28;20458;-72
2020/12/17 11:52:14;;;;;;;5.40;3.97;;;;;;;;;;5028685;28;20438;-71
2020/12/17 11:54:40;;;;;;;5.20;4.27;;;;;;;;;;5032175;28;20454;-71
2020/12/17 11:57:06;;;;;;;4.53;4.10;;;;;;;;;;5031180;28;20513;-72
2020/12/17 11:59:33;;;;;;;5.17;4.10;;;;;;;;;;5032536;28;20899;-72
2020/12/17 12:01:59;;;;;;;7.10;4.60;;;;;;;;;;5031806;28;20437;-71
2020/12/17 12:04:25;;;;;;;8.77;4.57;;;;;;;;;;5031956;28;20431;-71
2020/12/17 12:06:51;;;;;;;8.33;5.10;;;;;;;;;;5030731;28;20438;-72
2020/12/17 12:09:20;;;;;;;6.23;4.63;;;;;;;;;;5032697;28;20774;-72
2020/12/17 12:11:47;;;;;;;8.77;5.33;;;;;;;;;;5029410;28;20862;-72
2020/12/17 12:14:13;;;;;;;9.97;5.50;;;;;;;;;;5031655;28;20430;-72
2020/12/17 12:16:39;;;;;;;6.07;4.63;;;;;;;;;;5034899;28;20878;-72
2020/12/17 12:19:06;;;;;;;6.83;5.33;;;;;;;;;;5035853;28;20411;-72
2020/12/17 12:21:32;;;;;;;6.70;4.97;;;;;;;;;;5034983;28;20442;-72
2020/12/17 12:23:58;;;;;;;9.37;5.50;;;;;;;;;;5036481;28;20461;-72
2020/12/17 12:26:24;;;;;;;6.17;4.30;;;;;;;;;;5034383;28;20818;-73
2020/12/17 12:28:50;;;;;;;8.27;5.05;;;;;;;;;;5031998;28;20441;-72
2020/12/17 12:31:16;;;;;;;7.00;5.93;;;;;;;;;;5035113;28;20267;-72
2020/12/17 12:33:42;;;;;;;7.60;5.00;;;;;;;;;;5036982;28;20430;-72
2020/12/17 12:36:09;;;;;;;7.10;5.00;;;;;;;;;;5036611;28;20453;-72
2020/12/17 12:38:35;;;;;;;7.27;5.03;;;;;;;;;;5025897;28;20462;-71
2020/12/17 12:41:01;;;;;;;7.60;4.80;;;;;;;;;;5034304;28;20501;-72
2020/12/17 12:43:27;;;;;;;7.47;4.30;;;;;;;;;;5015870;28;20435;-71
2020/12/17 12:45:53;;;;;;;9.53;4.40;;;;;;;;;;5035947;28;20417;-71
2020/12/17 12:48:19;;;;;;;8.60;5.07;;;;;;;;;;5032056;28;20774;-70
2020/12/17 12:50:49;;;;;;;6.37;4.00;;;;;;;;;;5035127;28;20419;-72
2020/12/17 12:53:15;;;;;;;3.90;3.23;;;;;;;;;;5032208;28;20451;-72
2020/12/17 12:55:41;;;;;;;5.70;3.40;;;;;;;;;;5026843;28;20497;-71
2020/12/17 12:58:07;;;;;;;5.63;3.80;;;;;;;;;;5035511;28;20830;-71
2020/12/17 13:00:33;;;;;;;6.30;4.13;;;;;;;;;;5035736;28;20419;-71
2020/12/17 13:02:59;;;;;;;10.20;5.03;;;;;;;;;;5016998;28;20545;-71
2020/12/17 13:05:25;;;;;;;5.50;3.77;;;;;;;;;;5034432;28;20850;-71
2020/12/17 13:07:51;;;;;;;9.90;3.37;;;;;;;;;;5034373;28;20458;-71
2020/12/17 13:10:17;;;;;;;7.20;3.33;;;;;;;;;;5034857;28;20434;-71
2020/12/17 13:12:43;;;;;;;4.23;3.80;;;;;;;;;;5031714;28;20879;-74
2020/12/17 13:15:09;;;;;;;3.60;2.77;;;;;;;;;;5035272;28;20534;-71
2020/12/17 13:17:35;;;;;;;6.10;3.27;;;;;;;;;;5034281;28;20419;-73
2020/12/17 13:20:01;;;;;;;4.97;3.03;;;;;;;;;;5032735;28;20429;-72
2020/12/17 13:22:27;;;;;;;6.13;3.13;;;;;;;;;;5016376;28;20516;-73
2020/12/17 13:24:53;;;;;;;8.37;3.70;;;;;;;;;;5033391;28;20447;-72
2020/12/17 13:27:21;;;;;;;6.80;3.80;;;;;;;;;;5033193;28;20965;-72
2020/12/17 13:29:47;;;;;;;6.13;3.90;;;;;;;;;;5031360;28;20426;-72
2020/12/17 13:32:13;;;;;;;5.13;4.10;;;;;;;;;;5033559;28;21033;-73
2020/12/17 13:34:39;;;;;;;7.67;4.87;;;;;;;;;;5032142;28;20455;-73
2020/12/17 13:37:05;;;;;;;6.03;4.23;;;;;;;;;;5033676;28;20430;-71
2020/12/17 13:39:32;;;;;;;6.67;4.67;;;;;;;;;;5021772;28;20426;-72
2020/12/17 13:41:58;;;;;;;6.23;5.03;;;;;;;;;;5032792;28;20434;-73
2020/12/17 13:44:24;;;;;;;7.40;5.40;;;;;;;;;;5034014;28;20542;-72
2020/12/17 13:46:54;;;;;;;14.23;5.50;;;;;;;;;;5033373;28;20411;-72
2020/12/17 13:49:20;;;;;;;6.27;4.53;;;;;;;;;;5034042;28;20452;-71
2020/12/17 13:51:46;;;;;;;12.48;5.60;;;;;;;;;;5033475;28;20774;-71
2020/12/17 13:54:12;;;;;;;10.93;6.13;;;;;;;;;;5014812;28;20214;-70
2020/12/17 13:56:41;;;;;;;8.27;5.57;;;;;;;;;;5033529;28;20463;-73
2020/12/17 13:59:07;;;;;;;14.03;7.17;;;;;;;;;;5021069;28;20427;-71
2020/12/17 14:01:33;;;;;;;14.20;5.83;;;;;;;;;;5032382;28;20857;-69
2020/12/17 14:03:59;;;;;;;9.73;6.50;;;;;;;;;;5016619;28;20479;-72
2020/12/17 14:06:28;;;;;;;7.77;6.00;;;;;;;;;;5033545;28;20442;-73
2020/12/17 14:08:55;;;;;;;7.60;5.53;;;;;;;;;;5021556;28;20458;-72
2020/12/17 14:11:21;;;;;;;9.40;5.80;;;;;;;;;;5032254;28;20430;-69
2020/12/17 14:13:47;;;;;;;14.83;6.77;;;;;;;;;;5031921;28;20461;-72
2020/12/17 14:16:17;;;;;;;8.33;5.30;;;;;;;;;;5029985;28;20451;-72
2020/12/17 14:18:43;;;;;;;10.60;6.70;;;;;;;;;;5033013;28;20902;-72
2020/12/17 14:21:09;;;;;;;10.50;6.33;;;;;;;;;;5032092;28;20498;-71
2020/12/17 14:23:35;;;;;;;9.13;5.40;;;;;;;;;;5028016;28;20875;-71
2020/12/17 14:26:01;;;;;;;9.53;5.63;;;;;;;;;;5029805;28;20422;-71
2020/12/17 14:28:27;;;;;;;10.10;7.13;;;;;;;;;;5022349;28;20431;-71
2020/12/17 14:30:53;;;;;;;9.77;7.93;;;;;;;;;;5030770;28;20863;-70
2020/12/17 14:33:19;;;;;;;12.23;8.50;;;;;;;;;;5029439;28;20469;-71
2020/12/17 14:35:44;;;;;;;10.80;8.57;;;;;;;;;;5028768;28;20462;-70
2020/12/17 14:38:11;;;;;;;10.13;7.80;;;;;;;;;;5029698;28;20931;-69
2020/12/17 14:40:38;;;;;;;12.43;7.30;;;;;;;;;;5031801;28;20424;-69
2020/12/17 14:43:04;;;;;;;13.20;8.53;;;;;;;;;;5029808;28;20431;-71